Alt-Laatzen, Germany

3:20 AM CEST on April 28, 2017 (GMT +0200)
Peiner Straße | | Change Station

Elev 209 ft 52.29 °N, 9.83 °E | Updated 9 minutes ago

Partly Cloudy
Partly Cloudy
38.8 °F
Feels Like 39 °F
N
1.2
Wind Variable Wind from WSW
Gusts 3.1 mph

Today
High -- | Low -- °F
--% Chance of Precip.
Yesterday
High -- | Low -- °F
Precip. -- in
Pressure 29.95 in
Visibility -9999.0 miles
Clouds
Windchill 39 °F
Dew Point 31 °F
Humidity 73%
Rainfall Not available.
Snow Depth Not available.
5:55 AM 8:41 PM
Waxing Crescent, 4% visible
METAR EDDV 280050Z VRB01KT CAVOK 02/M01 Q1014
Pressure 29.95 in
Visibility -9999.0 miles
Clouds
Windchill 39 °F
Dew Point 31 °F
Humidity 73%
Rainfall Not available.
Snow Depth Not available.
5:55 AM 8:41 PM
Waxing Crescent, 4% visible
METAR EDDV 280050Z VRB01KT CAVOK 02/M01 Q1014

Get Severe Weather Alerts

Thanks for signing up!

Be on the lookout for a verification email in your inbox.

You'll start receiving the daily forecast at 8 AM.

×

10-Day Weather Forecast

×

Almanac

Astronomy

Apr. 28, 2017 Rise Set
Actual Time
Civil Twilight
Nautical Twilight
Astronomical Twilight
Moon
Length of Visible Light
Length of Day
Tomorrow will be .
, % of the Moon is Illuminated

Today's Extremes

Country Highs Country Lows

Community

WunderPhotos

WunderBlog® & News

Nearby

Air Quality

  Air Quality AQ Index Pollutant
Not available.

Snow Depth

Station Depth Elevation

Earthquake Activity

City Distance Mag. Time & Date
Minimum magnitude displayed is 2.5.

Coastal Water Temperatures

Place Temperature

Stations

Nearby Weather Stations

Station Location Temp. Windchill Dew Point Humidity Wind Precip. Elev Updated Type